Vancouver, British Columbia

10:48 AM PDT on August 28, 2016 (GMT -0700)
Fibreco | | Change Station

Elev 40 ft 49.32 °N, 123.11 °W | Updated 14 minutes ago

Overcast
Overcast
61.6 °F
Feels Like 61.6 °F
N
2.0
Wind Variable Wind from East
Gusts 4.0 mph

Today
High -- | Low -- °F
--% Chance of Precip.
Yesterday
High -- | Low -- °F
Precip. -- in
Pressure 30.09 in
Visibility 30.0 miles
Clouds Few 2600 ft
Mostly Cloudy 3200 ft
Overcast 13000 ft
Dew Point 55 °F
Humidity 79%
Rainfall 0.00 in
Snow Depth Not available.
6:23 AM 8:02 PM
Waning Crescent, 14% visible
METAR CYVR 281700Z 10012KT 30SM FEW026 BKN032 OVC130 16/12 A3008 RMK SC2SC4AC2 SLP187
Pressure 30.09 in
Visibility 30.0 miles
Clouds Few 2600 ft
Mostly Cloudy 3200 ft
Overcast 13000 ft
Dew Point 55 °F
Humidity 79%
Rainfall 0.00 in
Snow Depth Not available.
6:23 AM 8:02 PM
Waning Crescent, 14% visible
METAR CYVR 281700Z 10012KT 30SM FEW026 BKN032 OVC130 16/12 A3008 RMK SC2SC4AC2 SLP187

10-Day Weather Forecast

Almanac

Astronomy

Aug. 28, 2016 Rise Set
Actual Time
Civil Twilight
Nautical Twilight
Astronomical Twilight
Moon
Length of Visible Light
Length of Day
Tomorrow will be .
, % of the Moon is Illuminated

Today's Extremes

Country Highs Country Lows

Community

WunderPhotos

Upload Photos

1,935,639 photos uploaded!

WunderBlog® & News

Nearby

Air Quality

  Air Quality AQ Index Pollutant
Not available.

Snow Depth

Station Depth Elevation

Earthquake Activity

City Distance Mag. Time & Date
Minimum magnitude displayed is 2.5.

Coastal Water Temperatures

Place Temperature

Stations

Nearby Weather Stations

Station Location Temp. Windchill Dew Point Humidity Wind Precip. Elev Updated Type
                   

Watches & Warnings

There are currently no watches in effect.